Weather observations for the past three days for
La Grande/Union County Airport
Metric (Imperial)
Date Time (pdt) Wind (kph) Vis. (km) Weather Sky Cond. Temperature (ºC) Relative Humidity Wind Chill (°C) Heat Index (°C) Pressure Precipitation (cm)
Air Dwpt 6 hour altimeter (cm) sea level (mb) 1 hr 3 hr 6 hr
Max. Min.
10 08:56 N 7 16.09 Fair CLR 15 6.7 58% 76.3 1016.7
10 07:56 NW 7 16.09 Fair CLR 10.6 5.6 71% 76.33 1017.4
10 06:56 N 7 16.09 Fair CLR 7.8 4.4 79% 7 76.35 1017.3
10 05:56 Calm 16.09 Fair CLR 5 3.9 93% 76.35 1017.5
10 04:56 SE 6 16.09 Fair CLR 5 3.3 11.7 5 89% 76.38 1017.7
10 03:56 N 6 16.09 Fair CLR 7.8 3.3 73% 76.38 1017.7
10 02:56 Calm 16.09 Fair CLR 7.2 3.9 80% 76.38 1017.9
10 01:56 NE 6 16.09 Fair CLR 8.3 4.4 77% 76.38 1018.0
10 00:56 W 7 16.09 Fair CLR 10 5 71% 9 76.38 1017.9
09 23:56 S 7 16.09 Fair CLR 9.4 5 74% 9 76.38 1018.0
09 22:56 Calm 16.09 Fair CLR 12.2 5.6 24.4 11.1 64% 76.4 1018.0
09 21:56 SW 9 16.09 Fair CLR 13.9 5.6 58% 76.38 1017.9
09 20:56 S 13 16.09 Fair CLR 14.4 5.6 56% 76.38 1017.9
09 19:56 NW 9 16.09 Fair CLR 18.3 6.7 47% 76.33 1017.3
09 18:56 N 13 16.09 Fair CLR 22.8 5 32% 76.33 1016.9
09 17:56 E 6 16.09 Fair CLR 23.9 2.2 24% 25 76.33 1017.3
09 16:56 Vrbl 7 16.09 Fair CLR 24.4 0.6 24.4 17.2 21% 25 76.35 1017.3
09 15:56 Vrbl 6 16.09 Fair CLR 24.4 -1.1 18% 25 76.38 1017.7
09 14:56 Vrbl 11 16.09 Fair CLR 23.3 0 21% 76.43 1018.4
09 13:56 NE 7 16.09 Fair CLR 21.7 2.2 28% 76.48 1019.1
09 12:56 Vrbl 7 16.09 Fair CLR 20.6 3.9 33% 76.53 1019.8
09 11:56 N 11 16.09 Fair CLR 18.9 3.9 37% 76.58 1020.8
09 09:56 N 6 16.09 Fair CLR 14.4 4.4 51% 76.66 1021.8
09 08:56 Calm 16.09 Fair CLR 13.3 4.4 55% 76.66 1021.7
09 07:56 Vrbl 6 16.09 Fair CLR 10 4.4 68% 76.68 1022.2
09 06:56 NE 7 16.09 A Few Clouds FEW001 8.3 3.9 74% 7 76.68 1022.2
09 05:56 SE 13 16.09 Fair CLR 4.4 2.2 86% 2 76.66 1021.9
09 04:56 NW 6 16.09 Fair CLR 6.7 2.2 12.8 5 73% 76.66 1021.6
09 03:56 W 7 16.09 Fair CLR 6.7 2.8 76% 6 76.63 1021.1
09 02:56 Calm 16.09 Fair CLR 7.2 1.7 68% 76.61 1020.9
09 01:56 N 15 16.09 Fair CLR 9.4 2.8 64% 7 76.58 1020.3
09 00:56 Vrbl 6 16.09 Fair CLR 8.9 2.2 63% 76.58 1020.6
08 23:56 W 6 16.09 Fair CLR 8.9 1.7 61% 76.56 1020.3
08 22:56 NW 17 16.09 Fair CLR 12.8 1.7 22.2 12.8 47% 76.5 1019.7
08 21:56 W 13 16.09 Fair CLR 13.9 1.1 42% 76.48 1019.4
08 20:56 Calm 16.09 Fair CLR 15 0.6 38% 76.45 1019.0
08 19:56 N 11 16.09 Fair CLR 16.1 0 34% 76.35 1017.8
08 18:56 NW 24 G 37 16.09 Fair CLR 19.4 -0.6 26% 76.3 1017.2
08 17:56 NW 33 G 39 16.09 Fair and Breezy CLR 21.7 -2.2 20% 76.28 1017.0
08 16:56 NW 33 G 43 16.09 Fair and Breezy CLR 22.2 0.6 23.3 16.7 24% 76.25 1016.3
08 15:56 NW 19 16.09 Fair CLR 22.8 2.2 26% 76.25 1016.2
08 14:56 N 24 G 30 16.09 Fair CLR 22.2 0.6 24% 76.25 1016.5
08 13:56 NW 17 G 28 16.09 Fair CLR 22.2 0 23% 76.25 1016.1
08 12:56 W 13 16.09 Fair CLR 20.6 -1.7 22% 76.28 1016.6
08 11:56 Vrbl 6 16.09 Fair CLR 18.3 1.1 32% 76.33 1017.2
08 10:56 E 6 16.09 Fair CLR 16.7 1.7 16.7 1.1 37% 76.35 1017.5
08 09:56 E 6 16.09 Fair CLR 13.9 1.7 44% 76.33 1017.5
08 08:56 Calm 16.09 Fair CLR 11.1 1.7 53% 76.33 1017.6
08 07:56 S 6 16.09 Fair CLR 8.9 1.7 61% 76.35 1017.7
08 06:56 Calm 16.09 Fair CLR 5 1.1 76% 76.35 1017.9
08 05:56 Calm 16.09 Fair CLR 2.2 0 86% 76.3 1017.4
08 04:56 Calm 16.09 Fair CLR 3.3 0.6 12.2 1.7 83% 76.28 1016.8
08 03:56 W 6 16.09 Fair CLR 4.4 0.6 77% 76.25 1016.3
08 02:56 NE 6 16.09 Fair CLR 3.3 -0.6 76% 76.25 1016.4
08 01:56 Calm 16.09 Fair CLR 5 0 70% 76.25 1016.3
08 00:56 Calm 16.09 Fair CLR 7.8 1.1 63% 76.23 1016.0
07 22:56 Calm 16.09 Fair CLR 11.1 1.1 22.8 10.6 50% 76.2 1015.3
07 21:56 SW 7 16.09 Fair CLR 12.2 1.1 47% 76.17 1015.1
07 20:56 W 11 16.09 Fair CLR 15 0.6 38% 76.17 1015.0
07 19:56 W 7 16.09 Fair CLR 17.2 1.1 34% 76.12 1014.2
07 18:56 NW 13 16.09 Fair CLR 20.6 1.7 29% 76.1 1013.8
07 17:56 NW 15 16.09 Fair CLR 22.2 2.2 27% 76.1 1013.8
07 16:56 W 19 16.09 Fair CLR 23.3 1.7 23.9 18.9 24% 76.1 1013.6
07 15:56 NW 22 G 30 16.09 Fair CLR 23.3 2.2 25% 76.1 1013.7
07 14:56 NW 22 G 31 16.09 Fair CLR 22.8 3.3 28% 76.12 1014.2
07 13:56 NW 13 16.09 Fair CLR 21.7 3.9 31% 76.17 1014.7
07 12:56 N 13 16.09 Fair CLR 20.6 5 36% 76.23 1015.3
07 11:56 N 20 G 26 16.09 Fair CLR 20 4.4 36% 76.25 1015.8
07 10:56 N 17 G 26 16.09 Fair CLR 18.9 3.3 19.4 10 36% 76.25 1015.8
07 09:56 NW 9 16.09 Fair CLR 17.8 3.9 40% 76.28 1016.0
Date Time (pdt) Wind (kph) Vis. (km) Weather Sky Cond. Air Dwpt Max. Min. Relative Humidity Wind Chill (°C) Heat Index (°C) altimeter (cm) sea level (mb) 1 hr 3 hr 6 hr
6 hour
Temperature (ºC) Pressure Precipitation (cm)